Time;durP1;ratioP1;P1;durP2;ratioP2;P2;SDS_P1;SDS_P2;PMS_P1;PMS_P2;Temp;Humidity;BMP_temperature;BMP_pressure;BME280_temperature;BME280_humidity;BME280_pressure;Samples;Min_cycle;Max_cycle;Signal;HPM_P1;HPM_P2
2024/01/17 00:01:54;;;;;;;31.27;23.20;;;19.90;50.00;;;;;;5040242;28;20043;-62
2024/01/17 00:04:20;;;;;;;29.77;23.15;;;19.80;50.00;;;;;;5040858;28;20033;-63
2024/01/17 00:06:46;;;;;;;31.15;23.42;;;19.80;50.00;;;;;;5042336;28;20029;-64
2024/01/17 00:09:12;;;;;;;29.05;22.58;;;19.80;50.00;;;;;;5037728;28;20037;-62
2024/01/17 00:11:38;;;;;;;27.75;22.27;;;19.80;50.00;;;;;;5040954;28;20112;-62
2024/01/17 00:14:03;;;;;;;30.88;22.42;;;19.80;50.10;;;;;;5040900;28;20112;-63
2024/01/17 00:16:29;;;;;;;28.70;20.77;;;19.80;50.00;;;;;;5041869;28;20029;-63
2024/01/17 00:18:55;;;;;;;27.15;21.27;;;19.80;50.10;;;;;;5039857;28;20025;-63
2024/01/17 00:21:21;;;;;;;28.30;21.77;;;19.70;50.00;;;;;;5040345;28;20025;-62
2024/01/17 00:23:46;;;;;;;29.88;22.83;;;19.70;50.00;;;;;;5041705;28;20030;-63
2024/01/17 00:26:12;;;;;;;27.40;20.38;;;19.70;50.00;;;;;;5041081;28;20029;-62
2024/01/17 00:28:37;;;;;;;29.23;20.98;;;19.70;50.00;;;;;;5040724;28;20029;-63
2024/01/17 00:31:03;;;;;;;28.38;20.77;;;19.70;50.00;;;;;;5039143;28;20199;-62
2024/01/17 00:33:29;;;;;;;27.85;20.75;;;19.70;50.00;;;;;;5041676;28;20508;-62
2024/01/17 00:35:54;;;;;;;27.40;20.45;;;19.70;50.00;;;;;;5040318;28;20029;-63
2024/01/17 00:38:20;;;;;;;25.23;19.63;;;19.70;50.00;;;;;;5040350;28;20465;-63
2024/01/17 00:40:46;;;;;;;27.83;19.40;;;19.60;50.00;;;;;;5036793;28;20059;-63
2024/01/17 00:43:11;;;;;;;25.23;19.83;;;19.60;50.00;;;;;;5041321;28;20028;-62
2024/01/17 00:45:37;;;;;;;25.35;19.20;;;19.60;50.00;;;;;;5038613;28;20056;-62
2024/01/17 00:48:03;;;;;;;26.83;20.13;;;19.60;50.00;;;;;;5040129;28;20025;-62
2024/01/17 00:50:28;;;;;;;25.63;19.77;;;19.60;50.00;;;;;;5038537;28;20028;-62
2024/01/17 00:52:54;;;;;;;24.08;18.98;;;19.60;50.00;;;;;;5036499;28;20036;-63
2024/01/17 00:55:20;;;;;;;25.67;19.23;;;19.60;50.10;;;;;;5038600;28;20390;-62
2024/01/17 00:57:46;;;;;;;25.50;18.27;;;19.60;50.10;;;;;;5040876;28;20036;-63
2024/01/17 01:00:12;;;;;;;26.17;18.83;;;19.60;50.00;;;;;;5038871;28;20025;-63
2024/01/17 01:02:37;;;;;;;22.40;17.33;;;19.50;50.00;;;;;;5036407;28;20421;-62
2024/01/17 01:05:03;;;;;;;22.75;17.15;;;19.50;50.00;;;;;;5040445;28;20032;-63
2024/01/17 01:07:31;;;;;;;23.30;17.77;;;19.50;50.00;;;;;;5040580;28;20058;-62
2024/01/17 01:09:57;;;;;;;22.20;16.98;;;19.50;50.00;;;;;;5037766;28;20124;-66
2024/01/17 01:12:22;;;;;;;23.08;16.85;;;19.50;50.00;;;;;;5039596;28;20039;-66
2024/01/17 01:14:48;;;;;;;22.77;16.27;;;19.50;50.10;;;;;;5039711;28;20495;-66
2024/01/17 01:17:14;;;;;;;20.55;15.82;;;19.50;50.10;;;;;;5034788;28;20057;-65
2024/01/17 01:19:40;;;;;;;21.40;15.40;;;19.50;50.10;;;;;;5037374;28;20034;-65
2024/01/17 01:22:05;;;;;;;21.60;15.80;;;19.40;50.00;;;;;;5040534;28;20025;-66
2024/01/17 01:24:31;;;;;;;20.38;14.98;;;19.40;50.50;;;;;;5040774;28;20040;-66
2024/01/17 01:26:57;;;;;;;19.10;14.50;;;19.40;50.00;;;;;;5035935;28;20055;-65
2024/01/17 01:29:22;;;;;;;20.08;15.52;;;19.40;50.00;;;;;;5038854;28;20109;-65
2024/01/17 01:31:48;;;;;;;18.23;14.52;;;19.40;50.00;;;;;;5037705;28;20385;-65
2024/01/17 01:34:13;;;;;;;18.35;13.70;;;19.40;50.10;;;;;;5039723;28;20045;-65
2024/01/17 01:36:39;;;;;;;18.38;14.20;;;19.40;50.10;;;;;;5039491;28;20021;-65
2024/01/17 01:39:05;;;;;;;18.95;13.23;;;19.30;50.00;;;;;;5040475;28;20027;-65
2024/01/17 01:41:31;;;;;;;17.70;13.35;;;19.40;50.10;;;;;;5035554;28;20033;-63
2024/01/17 01:43:57;;;;;;;17.52;13.82;;;19.30;50.60;;;;;;5036059;28;20032;-62
2024/01/17 01:46:27;;;;;;;17.98;13.55;;;19.40;50.10;;;;;;5037275;28;20037;-63
2024/01/17 01:48:54;;;;;;;17.60;12.95;;;19.30;50.00;;;;;;5041273;28;20075;-62
2024/01/17 01:51:20;;;;;;;17.23;12.55;;;19.30;50.00;;;;;;5038676;28;20025;-63
2024/01/17 01:53:49;;;;;;;15.15;11.15;;;19.30;50.00;;;;;;5037475;28;20063;-62
2024/01/17 01:56:17;;;;;;;16.25;12.38;;;19.30;50.00;;;;;;5037579;28;20045;-62
2024/01/17 01:58:47;;;;;;;16.30;11.67;;;19.30;50.10;;;;;;5038611;28;20034;-62
2024/01/17 02:01:14;;;;;;;16.13;11.60;;;19.30;50.00;;;;;;5039354;28;20033;-66
2024/01/17 02:03:43;;;;;;;13.98;10.68;;;19.30;50.00;;;;;;5040822;28;20474;-66
2024/01/17 02:06:13;;;;;;;14.20;10.68;;;19.30;50.00;;;;;;5040391;28;20206;-66
2024/01/17 02:08:38;;;;;;;14.68;10.68;;;19.30;50.00;;;;;;5037934;28;20615;-66
2024/01/17 02:11:04;;;;;;;13.30;10.02;;;19.20;50.00;;;;;;5035275;28;20096;-66
2024/01/17 02:13:30;;;;;;;14.93;10.73;;;19.20;50.00;;;;;;5037981;28;20481;-66
2024/01/17 02:15:56;;;;;;;13.82;10.30;;;19.20;50.00;;;;;;5037137;28;20018;-66
2024/01/17 02:18:22;;;;;;;13.07;9.77;;;19.20;50.00;;;;;;5038844;28;20029;-66
2024/01/17 02:20:48;;;;;;;12.93;9.77;;;19.20;50.00;;;;;;5039473;28;20090;-63
2024/01/17 02:23:22;;;;;;;12.18;9.65;;;19.20;50.00;;;;;;5037041;28;20029;-62
2024/01/17 02:25:49;;;;;;;11.90;9.63;;;19.20;50.00;;;;;;5036475;28;20457;-63
2024/01/17 02:28:15;;;;;;;11.60;8.38;;;19.20;50.00;;;;;;5038776;28;20021;-62
2024/01/17 02:30:41;;;;;;;11.82;8.80;;;19.10;50.00;;;;;;5037397;28;20431;-66
2024/01/17 02:33:07;;;;;;;12.07;8.40;;;19.10;50.00;;;;;;5039035;28;20057;-66
2024/01/17 02:35:32;;;;;;;10.40;7.82;;;19.10;49.90;;;;;;5038826;28;20021;-66
2024/01/17 02:37:58;;;;;;;11.85;8.52;;;19.10;49.90;;;;;;5039522;28;20017;-66
2024/01/17 02:40:24;;;;;;;11.65;8.48;;;19.10;50.00;;;;;;5036204;28;20476;-66
2024/01/17 02:42:49;;;;;;;10.48;7.55;;;19.10;50.00;;;;;;5037422;28;20049;-65
2024/01/17 02:45:15;;;;;;;10.85;7.93;;;19.10;49.90;;;;;;5037107;28;20087;-65
2024/01/17 02:47:40;;;;;;;9.65;7.13;;;19.10;50.00;;;;;;5036414;28;20055;-66
2024/01/17 02:50:06;;;;;;;9.82;7.00;;;19.10;50.00;;;;;;5037715;28;20425;-65
2024/01/17 02:52:32;;;;;;;9.75;7.03;;;19.10;50.00;;;;;;5037574;28;20168;-65
2024/01/17 02:54:57;;;;;;;9.27;6.63;;;19.00;50.00;;;;;;5038203;28;20025;-65
2024/01/17 02:57:23;;;;;;;9.48;7.13;;;19.10;50.10;;;;;;5036563;28;20040;-66
2024/01/17 02:59:48;;;;;;;8.98;6.57;;;19.10;50.10;;;;;;5039906;28;20025;-64
2024/01/17 03:02:14;;;;;;;8.55;6.22;;;19.00;50.00;;;;;;5038746;28;20040;-62
2024/01/17 03:04:40;;;;;;;9.68;6.93;;;19.00;50.00;;;;;;5037536;28;20140;-62
2024/01/17 03:07:05;;;;;;;8.65;6.07;;;19.00;50.00;;;;;;5037371;28;20033;-62
2024/01/17 03:09:31;;;;;;;9.77;6.50;;;19.00;50.00;;;;;;5039623;28;20772;-63
2024/01/17 03:11:57;;;;;;;8.63;6.03;;;19.00;50.00;;;;;;5036873;28;20108;-63
2024/01/17 03:14:22;;;;;;;8.88;6.28;;;19.00;50.10;;;;;;5037370;28;20025;-64
2024/01/17 03:16:48;;;;;;;8.05;5.85;;;19.00;50.20;;;;;;5037188;28;20584;-63
2024/01/17 03:19:14;;;;;;;7.85;5.75;;;18.90;50.10;;;;;;5038442;28;20041;-62
2024/01/17 03:21:50;;;;;;;7.28;5.38;;;18.90;50.30;;;;;;5038355;28;20029;-67
2024/01/17 03:24:16;;;;;;;8.20;5.60;;;18.90;50.30;;;;;;5038473;28;20563;-66
2024/01/17 03:26:42;;;;;;;7.63;5.32;;;18.90;50.40;;;;;;5037737;28;20049;-66
2024/01/17 03:29:07;;;;;;;7.93;5.28;;;18.80;50.30;;;;;;5040893;28;20114;-66
2024/01/17 03:31:33;;;;;;;8.25;5.70;;;18.90;50.40;;;;;;5038280;28;20074;-66
2024/01/17 03:33:59;;;;;;;6.82;4.85;;;18.80;50.50;;;;;;5039022;28;20029;-66
2024/01/17 03:36:24;;;;;;;7.53;5.25;;;18.80;50.50;;;;;;5041832;28;20043;-66
2024/01/17 03:38:50;;;;;;;7.63;5.40;;;18.80;50.50;;;;;;5040476;28;20393;-66
2024/01/17 03:41:15;;;;;;;8.57;5.25;;;18.80;50.60;;;;;;5040295;28;20025;-66
2024/01/17 03:43:41;;;;;;;7.13;5.25;;;18.80;50.60;;;;;;5041398;28;20040;-66
2024/01/17 03:46:07;;;;;;;7.22;4.68;;;18.80;50.60;;;;;;5042833;28;20473;-65
2024/01/17 03:48:34;;;;;;;6.65;4.50;;;18.80;50.60;;;;;;5040643;28;20092;-66
2024/01/17 03:50:59;;;;;;;6.80;4.80;;;18.70;50.60;;;;;;5041093;28;20433;-66
2024/01/17 03:53:25;;;;;;;7.10;4.70;;;18.70;50.60;;;;;;5042129;28;20935;-66
2024/01/17 03:55:51;;;;;;;5.82;4.03;;;18.70;50.60;;;;;;5040481;28;20033;-66
2024/01/17 03:58:16;;;;;;;6.53;4.47;;;18.70;50.60;;;;;;5040822;28;20053;-66
2024/01/17 04:00:42;;;;;;;6.35;4.38;;;18.70;50.70;;;;;;5043626;28;20032;-65
2024/01/17 04:03:12;;;;;;;6.65;4.65;;;18.70;50.70;;;;;;5038867;28;20100;-65
2024/01/17 04:05:38;;;;;;;5.35;3.88;;;18.70;50.70;;;;;;5037493;28;20850;-65
2024/01/17 04:08:05;;;;;;;6.05;4.05;;;18.70;50.70;;;;;;5041887;28;20116;-65
2024/01/17 04:10:31;;;;;;;6.35;4.00;;;18.70;50.70;;;;;;5041766;28;20033;-64
2024/01/17 04:12:57;;;;;;;5.93;4.00;;;18.70;50.70;;;;;;5037481;28;20374;-64
2024/01/17 04:15:22;;;;;;;5.43;3.90;;;18.70;50.80;;;;;;5042586;28;20071;-63
2024/01/17 04:17:48;;;;;;;5.40;3.90;;;18.70;50.80;;;;;;5039969;28;20039;-63
2024/01/17 04:20:14;;;;;;;6.25;3.92;;;18.60;50.70;;;;;;5039919;28;20063;-62
2024/01/17 04:22:39;;;;;;;5.60;3.72;;;18.60;50.70;;;;;;5036063;28;20033;-62
2024/01/17 04:25:05;;;;;;;5.80;3.90;;;18.60;50.70;;;;;;5039479;28;20092;-63
2024/01/17 04:27:31;;;;;;;4.75;3.47;;;18.60;50.70;;;;;;5037106;28;20446;-63
2024/01/17 04:29:58;;;;;;;5.50;3.80;;;18.60;50.70;;;;;;5041820;28;20450;-65
2024/01/17 04:32:24;;;;;;;5.07;3.30;;;18.60;50.70;;;;;;5040927;28;20078;-65
2024/01/17 04:34:50;;;;;;;5.10;3.40;;;18.60;50.70;;;;;;5039422;28;20440;-65
2024/01/17 04:37:16;;;;;;;5.35;3.42;;;18.60;50.70;;;;;;5038447;28;20033;-64
2024/01/17 04:39:42;;;;;;;5.63;3.85;;;18.60;50.70;;;;;;5042720;28;20031;-65
2024/01/17 04:42:07;;;;;;;5.68;3.72;;;18.60;50.70;;;;;;5038162;28;20373;-65
2024/01/17 04:44:33;;;;;;;5.45;3.42;;;18.60;50.70;;;;;;5040789;28;20036;-64
2024/01/17 04:46:59;;;;;;;4.88;3.40;;;18.60;50.80;;;;;;5040660;28;20083;-64
2024/01/17 04:49:27;;;;;;;5.18;3.50;;;18.60;50.80;;;;;;5039830;28;20032;-65
2024/01/17 04:51:53;;;;;;;4.40;3.13;;;18.60;50.70;;;;;;5038094;28;20049;-65
2024/01/17 04:54:23;;;;;;;5.50;3.63;;;18.60;50.80;;;;;;5041222;28;20125;-64
2024/01/17 04:56:49;;;;;;;4.60;3.28;;;18.60;50.80;;;;;;5037424;28;20500;-65
2024/01/17 04:59:15;;;;;;;5.13;3.50;;;18.60;50.80;;;;;;5053341;28;20574;-65
2024/01/17 05:01:41;;;;;;;4.90;3.45;;;18.60;50.80;;;;;;5035731;28;20036;-65
2024/01/17 05:04:08;;;;;;;3.92;2.83;;;18.60;50.80;;;;;;5039289;28;20024;-65
2024/01/17 05:06:33;;;;;;;4.80;3.20;;;18.60;50.80;;;;;;5037755;28;20518;-65
2024/01/17 05:09:00;;;;;;;3.90;2.78;;;18.60;50.80;;;;;;5039544;28;20033;-65
2024/01/17 05:11:27;;;;;;;4.28;2.80;;;18.60;50.80;;;;;;5038479;28;20152;-65
2024/01/17 05:13:53;;;;;;;4.38;3.00;;;18.60;50.80;;;;;;5039217;28;20024;-65
2024/01/17 05:16:18;;;;;;;4.13;2.78;;;18.60;50.80;;;;;;5041278;28;20033;-65
2024/01/17 05:18:44;;;;;;;4.50;3.00;;;18.60;50.80;;;;;;5039050;28;20036;-65
2024/01/17 05:21:11;;;;;;;4.47;2.80;;;18.60;50.80;;;;;;5038834;28;20490;-66
2024/01/17 05:23:38;;;;;;;4.00;2.60;;;18.60;50.80;;;;;;5041452;28;20394;-66
2024/01/17 05:26:04;;;;;;;3.72;2.42;;;18.60;50.80;;;;;;5038499;28;20044;-69
2024/01/17 05:28:30;;;;;;;3.65;2.38;;;18.60;50.80;;;;;;5038224;28;20377;-69
2024/01/17 05:30:56;;;;;;;4.30;2.63;;;18.50;51.30;;;;;;5041112;28;20029;-69
2024/01/17 05:33:22;;;;;;;3.75;2.40;;;18.60;51.40;;;;;;5036955;28;20030;-69
2024/01/17 05:35:47;;;;;;;3.85;2.45;;;18.60;50.90;;;;;;5038300;28;20536;-69
2024/01/17 05:38:13;;;;;;;3.67;2.35;;;18.60;50.90;;;;;;5037092;28;20025;-69
2024/01/17 05:40:39;;;;;;;4.07;2.28;;;18.50;50.90;;;;;;5039917;28;20421;-69
2024/01/17 05:43:04;;;;;;;4.13;2.70;;;18.60;50.90;;;;;;5035700;28;20549;-69
2024/01/17 05:45:30;;;;;;;3.55;2.40;;;18.60;51.00;;;;;;5039318;28;20033;-69
2024/01/17 05:47:56;;;;;;;3.85;2.35;;;18.60;51.00;;;;;;5036786;28;20083;-70
2024/01/17 05:50:22;;;;;;;3.60;2.50;;;18.60;51.00;;;;;;5037380;28;20079;-68
2024/01/17 05:52:48;;;;;;;4.03;2.72;;;18.60;51.00;;;;;;5038360;28;20037;-68
2024/01/17 05:55:15;;;;;;;3.45;2.17;;;18.60;51.00;;;;;;5037658;28;20026;-68
2024/01/17 05:57:41;;;;;;;2.95;2.10;;;18.60;51.00;;;;;;5037962;28;20086;-69
2024/01/17 06:00:12;;;;;;;3.70;2.35;;;18.60;51.00;;;;;;5037041;28;20385;-69
2024/01/17 06:02:38;;;;;;;3.80;2.35;;;18.60;51.10;;;;;;5037600;28;20427;-68
2024/01/17 06:05:04;;;;;;;3.05;2.13;;;18.60;51.10;;;;;;5037581;28;20409;-68
2024/01/17 06:07:30;;;;;;;3.60;2.40;;;18.50;51.00;;;;;;5035812;28;20021;-69
2024/01/17 06:09:55;;;;;;;3.70;2.25;;;18.60;51.10;;;;;;5036425;28;20560;-69
2024/01/17 06:12:21;;;;;;;3.80;2.40;;;18.60;51.10;;;;;;5037092;28;20021;-69
2024/01/17 06:14:48;;;;;;;3.70;2.30;;;18.60;51.10;;;;;;5038523;28;20030;-69
2024/01/17 06:17:14;;;;;;;3.60;2.28;;;18.60;51.10;;;;;;5038599;28;20057;-69
2024/01/17 06:19:41;;;;;;;3.75;2.22;;;18.60;51.20;;;;;;5036131;28;20064;-69
2024/01/17 06:22:07;;;;;;;3.65;2.20;;;18.60;51.20;;;;;;5038254;28;20029;-69
2024/01/17 06:24:33;;;;;;;3.38;2.10;;;18.60;51.10;;;;;;5038137;28;20468;-69
2024/01/17 06:26:59;;;;;;;3.15;2.15;;;18.50;51.10;;;;;;5036655;28;20025;-70
2024/01/17 06:29:25;;;;;;;3.75;2.20;;;18.60;51.20;;;;;;5037693;28;20080;-68
2024/01/17 06:31:53;;;;;;;3.55;2.08;;;18.60;51.20;;;;;;5037636;28;20018;-66
2024/01/17 06:34:18;;;;;;;3.22;1.90;;;18.50;51.10;;;;;;5038575;28;20470;-65
2024/01/17 06:36:44;;;;;;;3.92;2.22;;;18.60;51.30;;;;;;5034590;28;20060;-65
2024/01/17 06:39:10;;;;;;;3.22;1.92;;;18.60;51.70;;;;;;5035364;28;20425;-65
2024/01/17 06:41:36;;;;;;;3.28;2.20;;;18.60;52.10;;;;;;5038389;28;20030;-69
2024/01/17 06:44:02;;;;;;;3.13;2.00;;;18.60;52.30;;;;;;5034918;28;20086;-69
2024/01/17 06:46:28;;;;;;;3.28;2.00;;;18.60;52.60;;;;;;5036590;28;20469;-69
2024/01/17 06:48:54;;;;;;;3.17;1.80;;;18.60;52.70;;;;;;5039057;28;20033;-69
2024/01/17 06:51:19;;;;;;;3.08;1.80;;;18.60;53.00;;;;;;5039527;28;20089;-69
2024/01/17 06:53:45;;;;;;;2.65;1.75;;;18.70;53.10;;;;;;5038400;28;20409;-69
2024/01/17 06:56:11;;;;;;;3.10;1.67;;;18.70;53.10;;;;;;5038377;28;20485;-69
2024/01/17 06:58:36;;;;;;;2.60;1.70;;;18.70;53.70;;;;;;5033398;28;20036;-69
2024/01/17 07:01:02;;;;;;;2.67;1.67;;;18.70;54.10;;;;;;5039206;28;20017;-69
2024/01/17 07:03:28;;;;;;;3.17;1.65;;;18.70;54.50;;;;;;5037748;28;20105;-68
2024/01/17 07:05:53;;;;;;;2.53;1.70;;;18.80;54.50;;;;;;5035933;28;20025;-68
2024/01/17 07:08:19;;;;;;;2.53;1.60;;;18.80;54.70;;;;;;5036220;28;20034;-69
2024/01/17 07:10:47;;;;;;;2.90;1.80;;;18.80;54.50;;;;;;5038675;28;20097;-69
2024/01/17 07:13:13;;;;;;;3.10;1.93;;;18.80;55.00;;;;;;5036299;28;20028;-69
2024/01/17 07:15:39;;;;;;;2.50;1.60;;;18.80;55.10;;;;;;5034611;28;20026;-69
2024/01/17 07:18:04;;;;;;;2.70;1.80;;;18.80;55.00;;;;;;5038763;28;20572;-69
2024/01/17 07:20:30;;;;;;;2.63;1.60;;;18.80;55.10;;;;;;5038841;28;20106;-69
2024/01/17 07:22:56;;;;;;;2.53;1.60;;;18.90;55.10;;;;;;5034870;28;20489;-69
2024/01/17 07:25:21;;;;;;;2.55;1.70;;;18.90;55.20;;;;;;5053313;28;20025;-69
2024/01/17 07:27:47;;;;;;;3.03;1.80;;;18.90;55.20;;;;;;5035142;28;20389;-69
2024/01/17 07:30:14;;;;;;;2.40;1.42;;;18.90;55.40;;;;;;5036995;28;20069;-69
2024/01/17 07:32:40;;;;;;;2.47;1.60;;;18.90;55.50;;;;;;5034882;28;20031;-68
2024/01/17 07:35:06;;;;;;;2.50;1.80;;;19.00;55.60;;;;;;5038408;28;20403;-68
2024/01/17 07:37:32;;;;;;;2.10;1.45;;;19.00;55.50;;;;;;5037553;28;20075;-68
2024/01/17 07:39:59;;;;;;;2.25;1.35;;;19.00;55.60;;;;;;5038199;28;20036;-69
2024/01/17 07:42:24;;;;;;;2.20;1.52;;;19.00;55.90;;;;;;5039083;28;20045;-69
2024/01/17 07:44:50;;;;;;;2.10;1.45;;;19.10;55.50;;;;;;5035081;28;20035;-70
2024/01/17 07:47:16;;;;;;;3.17;1.52;;;19.20;55.40;;;;;;5034590;28;20051;-70
2024/01/17 07:49:42;;;;;;;2.28;1.58;;;19.40;55.30;;;;;;5036938;28;20136;-70
2024/01/17 07:52:08;;;;;;;2.35;1.40;;;19.60;55.40;;;;;;5037079;28;20402;-68
2024/01/17 07:54:34;;;;;;;2.58;1.70;;;19.70;55.30;;;;;;5036673;28;20025;-69
2024/01/17 07:57:00;;;;;;;2.53;1.38;;;19.90;55.30;;;;;;5038411;28;20036;-69
2024/01/17 07:59:27;;;;;;;2.33;1.40;;;20.00;55.20;;;;;;5036075;28;20025;-69
2024/01/17 08:01:54;;;;;;;2.60;1.50;;;20.20;55.20;;;;;;5035396;28;20028;-69
2024/01/17 08:04:20;;;;;;;2.13;1.33;;;20.30;54.30;;;;;;5034578;28;20162;-68
2024/01/17 08:06:46;;;;;;;2.13;1.50;;;20.30;54.20;;;;;;5037113;28;20121;-68
2024/01/17 08:09:21;;;;;;;2.10;1.15;;;20.30;54.10;;;;;;5037316;28;20459;-69
2024/01/17 08:11:58;;;;;;;1.90;1.15;;;20.30;54.20;;;;;;5039276;28;20330;-69
2024/01/17 08:14:24;;;;;;;2.00;1.30;;;20.30;54.80;;;;;;5038577;28;20488;-69
2024/01/17 08:16:53;;;;;;;2.28;1.40;;;20.20;54.30;;;;;;5041653;28;20112;-69
2024/01/17 08:19:19;;;;;;;2.58;1.35;;;20.20;54.30;;;;;;5040287;28;20032;-69
2024/01/17 08:21:46;;;;;;;2.13;1.38;;;20.30;54.40;;;;;;5039972;28;20029;-69
2024/01/17 08:24:12;;;;;;;2.20;1.40;;;20.30;54.40;;;;;;5041088;28;20493;-69
2024/01/17 08:26:41;;;;;;;2.38;1.50;;;20.30;54.00;;;;;;5039618;28;20562;-68
2024/01/17 08:29:08;;;;;;;1.90;1.30;;;20.30;52.60;;;;;;5036050;28;20461;-68
2024/01/17 08:31:33;;;;;;;2.40;1.58;;;20.20;52.70;;;;;;5039030;28;20029;-68
2024/01/17 08:34:00;;;;;;;2.70;1.80;;;20.30;52.80;;;;;;5039564;28;20029;-67
2024/01/17 08:36:30;;;;;;;2.60;1.50;;;20.40;53.00;;;;;;5039802;28;20020;-68
2024/01/17 08:38:56;;;;;;;;;;;20.60;53.10;;;;;;5039818;28;20493;-68
2024/01/17 08:41:26;;;;;;;3.05;1.60;;;20.70;53.30;;;;;;5040028;28;19911;-67
2024/01/17 08:43:52;;;;;;;2.22;1.35;;;20.80;53.20;;;;;;5038084;28;20037;-68
2024/01/17 08:46:19;;;;;;;2.50;1.60;;;20.90;53.10;;;;;;5037686;28;20421;-68
2024/01/17 08:48:44;;;;;;;2.38;1.38;;;21.10;53.00;;;;;;5038735;28;20107;-68
2024/01/17 08:51:11;;;;;;;1.90;1.20;;;21.20;53.10;;;;;;5040129;28;20056;-68
2024/01/17 08:53:37;;;;;;;2.00;1.20;;;21.30;53.10;;;;;;5039042;28;20132;-69
2024/01/17 08:56:05;;;;;;;1.85;1.25;;;21.50;53.20;;;;;;5037936;28;20036;-70
2024/01/17 08:58:31;;;;;;;1.80;1.17;;;21.80;52.70;;;;;;5036735;28;20021;-71
2024/01/17 09:00:57;;;;;;;1.60;1.05;;;22.10;52.30;;;;;;5039523;28;20025;-69
2024/01/17 09:03:23;;;;;;;2.05;1.20;;;22.30;51.80;;;;;;5040083;28;20508;-68
2024/01/17 09:05:48;;;;;;;1.73;1.13;;;22.50;51.70;;;;;;5037982;28;20018;-69
2024/01/17 09:08:14;;;;;;;1.00;0.90;;;22.70;51.50;;;;;;5039312;28;20617;-68
2024/01/17 09:10:40;;;;;;;1.27;0.90;;;22.80;51.20;;;;;;5038851;28;20030;-69
2024/01/17 09:13:06;;;;;;;1.55;1.10;;;23.00;51.30;;;;;;5041099;28;20029;-68
2024/01/17 09:15:32;;;;;;;1.30;0.98;;;23.10;51.30;;;;;;5036705;28;20025;-68
2024/01/17 09:17:58;;;;;;;1.77;0.88;;;23.20;51.20;;;;;;5040577;28;20079;-68
2024/01/17 09:20:24;;;;;;;1.67;1.10;;;23.30;51.10;;;;;;5037184;28;20480;-68
2024/01/17 09:22:50;;;;;;;2.20;0.90;;;23.40;51.00;;;;;;5037754;28;20021;-67
2024/01/17 09:25:17;;;;;;;1.25;0.98;;;23.60;50.90;;;;;;5042043;28;20044;-68
2024/01/17 09:27:43;;;;;;;1.48;0.80;;;23.70;50.70;;;;;;5037489;28;20024;-68
2024/01/17 09:30:09;;;;;;;1.58;0.80;;;23.80;50.60;;;;;;5037188;28;20028;-68
2024/01/17 09:32:34;;;;;;;1.92;0.95;;;23.90;50.50;;;;;;5039229;28;20247;-67
2024/01/17 09:35:00;;;;;;;1.30;0.82;;;23.70;50.70;;;;;;5040494;28;20025;-68
2024/01/17 09:37:25;;;;;;;1.13;0.80;;;23.60;51.20;;;;;;5036486;28;20100;-68
2024/01/17 09:39:51;;;;;;;1.55;0.85;;;23.50;51.50;;;;;;5038299;28;20186;-68
2024/01/17 09:42:19;;;;;;;1.00;0.80;;;23.50;51.70;;;;;;5037635;28;20039;-68
2024/01/17 09:44:45;;;;;;;1.83;1.00;;;23.40;51.90;;;;;;5038513;28;20036;-67
2024/01/17 09:47:15;;;;;;;1.35;0.85;;;23.30;52.00;;;;;;5036591;28;20029;-67
2024/01/17 09:49:41;;;;;;;1.45;1.00;;;23.30;52.10;;;;;;5039197;28;20012;-67
2024/01/17 09:52:08;;;;;;;1.88;1.10;;;23.20;52.20;;;;;;5038544;28;20025;-67
2024/01/17 09:54:40;;;;;;;1.90;0.98;;;23.20;52.80;;;;;;5040135;28;20079;-68
2024/01/17 09:57:09;;;;;;;1.30;0.90;;;23.20;52.40;;;;;;5039504;28;20100;-68
2024/01/17 09:59:45;;;;;;;1.67;0.88;;;23.20;52.50;;;;;;5035157;28;20187;-68
2024/01/17 10:02:12;;;;;;;1.40;1.00;;;23.20;52.50;;;;;;5039298;28;20680;-68
2024/01/17 10:04:41;;;;;;;1.70;1.00;;;23.10;52.50;;;;;;5036939;28;20155;-68
2024/01/17 10:07:07;;;;;;;1.42;0.88;;;23.10;52.60;;;;;;5040826;28;20044;-68
2024/01/17 10:09:33;;;;;;;1.83;1.10;;;23.10;52.60;;;;;;5035425;28;20416;-68
2024/01/17 10:11:59;;;;;;;1.55;0.90;;;23.10;52.70;;;;;;5040660;28;20393;-67
2024/01/17 10:14:25;;;;;;;1.08;0.80;;;23.10;52.80;;;;;;5037352;28;20028;-67
2024/01/17 10:16:51;;;;;;;1.95;0.88;;;23.10;52.90;;;;;;5040771;28;20038;-67
2024/01/17 10:19:17;;;;;;;1.52;0.93;;;23.00;52.90;;;;;;5037189;28;20492;-67
2024/01/17 10:21:43;;;;;;;1.77;1.02;;;23.00;53.00;;;;;;5037633;28;20129;-67
2024/01/17 10:24:11;;;;;;;1.42;0.90;;;23.00;52.90;;;;;;5037096;28;20040;-67
2024/01/17 10:26:44;;;;;;;1.65;1.00;;;23.00;52.90;;;;;;5041030;28;20465;-67
2024/01/17 10:29:11;;;;;;;1.38;0.90;;;23.00;53.00;;;;;;5033749;28;20493;-67
2024/01/17 10:31:40;;;;;;;2.88;1.00;;;23.00;52.90;;;;;;5036331;28;20036;-68
2024/01/17 10:34:08;;;;;;;1.10;0.80;;;23.00;53.00;;;;;;5036053;28;20021;-67
2024/01/17 10:36:44;;;;;;;1.13;0.80;;;23.00;53.00;;;;;;5038207;28;20441;-67
2024/01/17 10:39:11;;;;;;;1.75;1.00;;;23.00;53.00;;;;;;5038923;28;20366;-67
2024/01/17 10:41:56;;;;;;;1.27;0.80;;;23.00;52.90;;;;;;5036570;28;20100;-68
2024/01/17 10:44:22;;;;;;;1.83;1.33;;;23.00;52.80;;;;;;5034709;28;20851;-67
2024/01/17 10:46:50;;;;;;;2.38;1.70;;;23.00;48.40;;;;;;5032273;28;20026;-67
2024/01/17 10:49:17;;;;;;;2.47;1.60;;;22.90;46.80;;;;;;5049190;28;20037;-67
2024/01/17 10:52:13;;;;;;;2.67;1.70;;;22.80;46.00;;;;;;5034351;28;20028;-67
2024/01/17 10:54:47;;;;;;;2.38;1.60;;;22.80;45.80;;;;;;5037015;28;20504;-67
2024/01/17 10:57:15;;;;;;;2.53;1.73;;;22.70;45.70;;;;;;5038787;28;20592;-66
2024/01/17 10:59:47;;;;;;;2.70;1.77;;;22.70;45.50;;;;;;5037592;28;20021;-66
2024/01/17 11:02:21;;;;;;;2.80;1.67;;;22.60;45.30;;;;;;5038683;28;20048;-66
2024/01/17 11:04:53;;;;;;;2.15;1.45;;;22.60;45.20;;;;;;5042673;28;20457;-66
2024/01/17 11:07:20;;;;;;;1.98;1.38;;;22.50;46.30;;;;;;5041411;28;20033;-66
2024/01/17 11:09:48;;;;;;;1.80;1.20;;;22.40;47.00;;;;;;5042891;28;20489;-66
2024/01/17 11:12:15;;;;;;;2.35;1.10;;;22.40;47.50;;;;;;5043295;28;20018;-66
2024/01/17 11:14:42;;;;;;;1.90;1.20;;;22.40;48.00;;;;;;5041906;28;20021;-66
2024/01/17 11:17:10;;;;;;;2.67;1.70;;;22.40;48.40;;;;;;5034434;28;20026;-66
2024/01/17 11:19:37;;;;;;;2.70;1.70;;;22.50;46.80;;;;;;5043188;28;20025;-65
2024/01/17 11:22:03;;;;;;;1.88;1.25;;;22.40;46.10;;;;;;5045739;28;20038;-61
2024/01/17 11:24:55;;;;;;;1.90;1.20;;;22.40;46.80;;;;;;5037185;28;20036;-63
2024/01/17 11:27:40;;;;;;;1.80;1.30;;;22.30;47.30;;;;;;5040979;28;20025;-63
2024/01/17 11:30:32;;;;;;;1.60;1.00;;;22.30;47.80;;;;;;5041510;28;20049;-62
2024/01/17 11:33:06;;;;;;;1.55;1.10;;;22.30;48.30;;;;;;5037023;28;20531;-63
2024/01/17 11:35:47;;;;;;;1.67;1.17;;;22.30;48.70;;;;;;5036852;28;20107;-62
2024/01/17 11:38:23;;;;;;;1.50;1.00;;;22.30;49.10;;;;;;5036869;28;20017;-64
2024/01/17 11:40:54;;;;;;;1.95;1.13;;;22.40;49.50;;;;;;5035415;28;20500;-66
2024/01/17 11:43:20;;;;;;;1.60;1.08;;;22.40;49.60;;;;;;5035493;28;20485;-66
2024/01/17 11:45:53;;;;;;;1.75;1.20;;;22.40;49.80;;;;;;5037131;28;20033;-66
2024/01/17 11:48:23;;;;;;;1.60;1.30;;;22.40;49.90;;;;;;5040976;28;20061;-65
2024/01/17 11:50:58;;;;;;;1.73;1.15;;;22.40;50.10;;;;;;5040561;28;20068;-66
2024/01/17 11:53:26;;;;;;;1.77;1.10;;;22.40;50.30;;;;;;5039926;28;20044;-65
2024/01/17 11:55:52;;;;;;;2.25;1.10;;;22.40;50.50;;;;;;5040191;28;20517;-65
2024/01/17 11:58:18;;;;;;;1.90;1.10;;;22.40;50.80;;;;;;5042284;28;20029;-65
2024/01/17 12:00:44;;;;;;;1.90;1.00;;;22.40;51.00;;;;;;5039509;28;20111;-65
2024/01/17 12:03:10;;;;;;;1.70;1.13;;;22.40;51.20;;;;;;5044276;28;20452;-65
2024/01/17 12:05:38;;;;;;;1.65;1.20;;;22.40;51.30;;;;;;5040601;28;20037;-65
2024/01/17 12:08:05;;;;;;;1.90;1.10;;;22.40;51.30;;;;;;5041230;28;20033;-65
2024/01/17 12:10:31;;;;;;;1.70;1.10;;;22.40;51.30;;;;;;5043545;28;20030;-65
2024/01/17 12:12:58;;;;;;;1.77;1.10;;;22.40;51.30;;;;;;5045546;28;20025;-65
2024/01/17 12:15:23;;;;;;;1.88;1.13;;;22.40;51.40;;;;;;5040063;28;20033;-65
2024/01/17 12:17:50;;;;;;;1.60;1.10;;;22.40;51.50;;;;;;5040066;28;20034;-66
2024/01/17 12:20:17;;;;;;;1.67;1.00;;;22.50;51.70;;;;;;5041028;28;20531;-65
2024/01/17 12:22:50;;;;;;;1.60;0.90;;;22.50;51.80;;;;;;5039019;28;20494;-67
2024/01/17 12:25:18;;;;;;;2.05;1.42;;;22.50;51.90;;;;;;5040486;28;20029;-67
2024/01/17 12:27:51;;;;;;;2.38;1.50;;;22.50;50.00;;;;;;5042611;28;20155;-67
2024/01/17 12:30:27;;;;;;;2.50;1.60;;;22.50;48.20;;;;;;5036616;28;20034;-67
2024/01/17 12:32:52;;;;;;;3.58;1.70;;;22.40;47.30;;;;;;5040682;28;20035;-65
2024/01/17 12:35:18;;;;;;;2.63;1.70;;;22.40;47.00;;;;;;5041831;28;20021;-66
2024/01/17 12:37:44;;;;;;;3.40;1.50;;;22.30;46.70;;;;;;5039159;28;20583;-65
2024/01/17 12:40:15;;;;;;;2.17;1.40;;;22.30;46.80;;;;;;5041352;28;20025;-65
2024/01/17 12:42:41;;;;;;;2.80;1.70;;;22.30;46.70;;;;;;5040990;28;20032;-64